Time;durP1;ratioP1;P1;durP2;ratioP2;P2;SDS_P1;SDS_P2;PMS_P1;PMS_P2;Temp;Humidity;BMP_temperature;BMP_pressure;BME280_temperature;BME280_humidity;BME280_pressure;Samples;Min_cycle;Max_cycle;Signal;HPM_P1;HPM_P2
2024/01/06 00:00:56;;;;;;;0.40;0.40;;;;;;;5.13;100.00;100183.81;5093280;28;20099;-57
2024/01/06 00:03:21;;;;;;;0.30;0.30;;;;;;;5.10;100.00;100193.91;5093593;28;20022;-57
2024/01/06 00:05:46;;;;;;;0.40;0.40;;;;;;;5.06;100.00;100187.81;5093864;28;20036;-57
2024/01/06 00:08:11;;;;;;;0.30;0.30;;;;;;;5.04;100.00;100196.22;5092618;28;20421;-57
2024/01/06 00:10:37;;;;;;;0.40;0.40;;;;;;;5.00;100.00;100199.47;5093665;28;20066;-56
2024/01/06 00:13:02;;;;;;;0.30;0.30;;;;;;;4.98;100.00;100206.16;5093513;28;20020;-57
2024/01/06 00:15:27;;;;;;;0.30;0.30;;;;;;;4.94;100.00;100200.06;5092310;28;20031;-57
2024/01/06 00:17:53;;;;;;;0.30;0.30;;;;;;;4.87;100.00;100206.59;5093671;28;20028;-57
2024/01/06 00:20:18;;;;;;;0.30;0.30;;;;;;;4.86;100.00;100222.72;5093330;28;20028;-57
2024/01/06 00:22:44;;;;;;;0.30;0.30;;;;;;;4.82;100.00;100223.41;5092711;28;20020;-57
2024/01/06 00:25:09;;;;;;;0.40;0.40;;;;;;;4.78;100.00;100219.84;5093404;28;20028;-57
2024/01/06 00:27:34;;;;;;;0.40;0.40;;;;;;;4.78;100.00;100231.75;5093599;28;20020;-57
2024/01/06 00:30:00;;;;;;;0.40;0.40;;;;;;;4.76;100.00;100228.22;5092789;28;20070;-57
2024/01/06 00:32:25;;;;;;;0.40;0.40;;;;;;;4.76;100.00;100230.78;5092959;28;20020;-57
2024/01/06 00:34:50;;;;;;;0.30;0.30;;;;;;;4.76;100.00;100234.22;5093100;28;20074;-57
2024/01/06 00:37:15;;;;;;;0.40;0.40;;;;;;;4.74;100.00;100234.97;5091784;28;20034;-57
2024/01/06 00:39:41;;;;;;;0.30;0.30;;;;;;;4.72;100.00;100239.97;5092919;28;20024;-57
2024/01/06 00:42:06;;;;;;;0.40;0.40;;;;;;;4.72;100.00;100234.03;5093205;28;20035;-57
2024/01/06 00:44:32;;;;;;;0.40;0.40;;;;;;;4.70;100.00;100235.63;5092072;28;20047;-57
2024/01/06 00:46:57;;;;;;;0.30;0.30;;;;;;;4.67;100.00;100232.94;5093590;28;20029;-57
2024/01/06 00:49:22;;;;;;;0.40;0.40;;;;;;;4.66;100.00;100237.19;5092960;28;20472;-57
2024/01/06 00:51:47;;;;;;;0.30;0.30;;;;;;;4.66;100.00;100233.75;5092532;28;20040;-57
2024/01/06 00:54:13;;;;;;;0.40;0.40;;;;;;;4.64;100.00;100237.94;5092813;28;20582;-57
2024/01/06 00:56:38;;;;;;;0.40;0.40;;;;;;;4.64;100.00;100235.38;5093006;28;20024;-57
2024/01/06 00:59:03;;;;;;;0.30;0.30;;;;;;;4.63;100.00;100238.72;5092203;28;20032;-56
2024/01/06 01:01:29;;;;;;;0.38;0.38;;;;;;;4.64;100.00;100245.59;5092659;28;20476;-57
2024/01/06 01:03:54;;;;;;;0.30;0.30;;;;;;;4.63;100.00;100246.38;5092381;28;20115;-57
2024/01/06 01:06:19;;;;;;;0.40;0.40;;;;;;;4.58;100.00;100241.97;5092749;28;20024;-57
2024/01/06 01:08:45;;;;;;;0.35;0.35;;;;;;;4.60;100.00;100253.09;5093025;28;20103;-57
2024/01/06 01:11:10;;;;;;;0.40;0.40;;;;;;;4.58;100.00;100261.47;5092021;28;20383;-57
2024/01/06 01:13:35;;;;;;;0.30;0.30;;;;;;;4.54;100.00;100255.38;5092722;28;20036;-57
2024/01/06 01:16:01;;;;;;;0.30;0.30;;;;;;;4.53;100.00;100258.75;5092748;28;20077;-57
2024/01/06 01:18:26;;;;;;;0.38;0.38;;;;;;;4.53;100.00;100262.97;5091984;28;20020;-57
2024/01/06 01:20:51;;;;;;;0.38;0.38;;;;;;;4.52;100.00;100259.53;5092958;28;20055;-57
2024/01/06 01:23:17;;;;;;;0.40;0.40;;;;;;;4.51;100.00;100264.59;5092466;28;20030;-57
2024/01/06 01:25:42;;;;;;;0.35;0.35;;;;;;;4.47;100.00;100273.78;5092113;28;20028;-56
2024/01/06 01:28:07;;;;;;;0.40;0.40;;;;;;;4.43;100.00;100274.44;5092821;28;20099;-57
2024/01/06 01:30:32;;;;;;;0.30;0.30;;;;;;;4.40;100.00;100276.84;5092607;28;20111;-57
2024/01/06 01:32:58;;;;;;;0.30;0.30;;;;;;;4.40;100.00;100276.84;5092164;28;20032;-57
2024/01/06 01:35:24;;;;;;;0.35;0.35;;;;;;;4.37;100.00;100282.69;5092154;28;20446;-57
2024/01/06 01:37:49;;;;;;;0.38;0.38;;;;;;;4.35;100.00;100284.31;5092589;28;20063;-57
2024/01/06 01:40:14;;;;;;;0.40;0.40;;;;;;;4.35;100.00;100291.06;5091677;28;20028;-56
2024/01/06 01:42:42;;;;;;;0.30;0.30;;;;;;;4.32;100.00;100291.81;5092370;28;20024;-57
2024/01/06 01:45:08;;;;;;;0.40;0.40;;;;;;;4.28;100.00;100285.69;5092843;28;20042;-57
2024/01/06 01:47:33;;;;;;;0.40;0.40;;;;;;;4.27;100.00;100293.25;5091553;28;20467;-57
2024/01/06 01:50:01;;;;;;;0.40;0.40;;;;;;;4.26;100.00;100299.16;5094942;28;20039;-57
2024/01/06 01:52:26;;;;;;;0.40;0.40;;;;;;;4.26;100.00;100300.06;5096073;28;20028;-57
2024/01/06 01:54:52;;;;;;;0.30;0.30;;;;;;;4.26;100.00;100311.91;5095491;28;20035;-56
2024/01/06 01:57:18;;;;;;;0.40;0.40;;;;;;;4.25;100.00;100308.50;5095822;28;20020;-57
2024/01/06 01:59:44;;;;;;;0.40;0.40;;;;;;;4.23;100.00;100315.19;5096647;28;20165;-57
2024/01/06 02:02:09;;;;;;;0.40;0.40;;;;;;;4.23;100.00;100315.19;5095378;28;20069;-57
2024/01/06 02:04:35;;;;;;;0.40;0.40;;;;;;;4.22;100.00;100317.69;5096114;28;20024;-57
2024/01/06 02:07:00;;;;;;;0.40;0.40;;;;;;;4.23;100.00;100319.44;5096128;28;20028;-57
2024/01/06 02:09:29;;;;;;;0.38;0.38;;;;;;;4.20;100.00;100320.19;5094981;28;20031;-57
2024/01/06 02:11:56;;;;;;;0.40;0.40;;;;;;;4.18;100.00;100320.91;5095846;28;20391;-56
2024/01/06 02:14:21;;;;;;;0.40;0.40;;;;;;;4.16;100.00;100325.94;5095085;28;20027;-57
2024/01/06 02:16:46;;;;;;;0.30;0.30;;;;;;;4.12;100.00;100329.16;5095844;28;20032;-57
2024/01/06 02:19:13;;;;;;;0.40;0.40;;;;;;;4.09;100.00;100332.44;5095534;28;20050;-57
2024/01/06 02:21:43;;;;;;;0.30;0.30;;;;;;;4.07;100.00;100333.16;5095116;28;20099;-57
2024/01/06 02:24:09;;;;;;;0.40;0.40;;;;;;;4.03;100.00;100328.69;5095693;28;20391;-56
2024/01/06 02:26:34;;;;;;;0.35;0.35;;;;;;;4.02;100.00;100329.53;5095325;28;20028;-57
2024/01/06 02:28:59;;;;;;;0.40;0.40;;;;;;;4.00;100.00;100337.06;5095173;28;20020;-57
2024/01/06 02:31:25;;;;;;;0.30;0.30;;;;;;;3.99;100.00;100347.19;5095474;28;20031;-57
2024/01/06 02:33:50;;;;;;;0.40;0.40;;;;;;;3.97;100.00;100351.38;5095485;28;20369;-57
2024/01/06 02:36:15;;;;;;;0.40;0.40;;;;;;;3.98;100.00;100353.09;5094391;28;20035;-57
2024/01/06 02:38:41;;;;;;;0.30;0.30;;;;;;;3.94;100.00;100354.66;5095346;28;20059;-57
2024/01/06 02:41:06;;;;;;;0.30;0.30;;;;;;;3.92;100.00;100359.66;5095343;28;20468;-57
2024/01/06 02:43:31;;;;;;;0.38;0.38;;;;;;;3.88;100.00;100367.94;5094536;28;20036;-56
2024/01/06 02:45:56;;;;;;;0.40;0.40;;;;;;;3.85;100.00;100375.47;5095196;28;20028;-57
2024/01/06 02:48:22;;;;;;;0.40;0.40;;;;;;;3.79;100.00;100368.38;5095172;28;20115;-57
2024/01/06 02:50:47;;;;;;;0.40;0.40;;;;;;;3.74;100.00;100368.97;5094548;28;20016;-57
2024/01/06 02:53:12;;;;;;;0.30;0.30;;;;;;;3.67;100.00;100377.97;5094916;28;20024;-56
2024/01/06 02:55:38;;;;;;;0.30;0.30;;;;;;;3.62;100.00;100380.28;5095082;28;20379;-57
2024/01/06 02:58:04;;;;;;;0.40;0.40;;;;;;;3.56;100.00;100387.63;5094550;28;20055;-57
2024/01/06 03:00:29;;;;;;;0.30;0.30;;;;;;;3.53;100.00;100391.72;5094504;28;20056;-56
2024/01/06 03:02:54;;;;;;;0.40;0.40;;;;;;;3.48;100.00;100399.09;5095076;28;20020;-56
2024/01/06 03:05:20;;;;;;;0.30;0.30;;;;;;;3.46;100.00;100404.13;5093950;28;20479;-57
2024/01/06 03:07:45;;;;;;;0.40;0.40;;;;;;;3.44;100.00;100405.72;5094911;28;20020;-57
2024/01/06 03:10:10;;;;;;;0.40;0.40;;;;;;;3.44;100.00;100409.94;5094465;28;20040;-57
2024/01/06 03:12:36;;;;;;;0.40;0.40;;;;;;;3.41;100.00;100410.66;5094288;28;20024;-57
2024/01/06 03:15:01;;;;;;;0.30;0.30;;;;;;;3.39;100.00;100417.34;5094666;28;20448;-57
2024/01/06 03:17:28;;;;;;;0.40;0.40;;;;;;;3.39;100.00;100421.56;5093612;28;20035;-57
2024/01/06 03:19:53;;;;;;;0.30;0.30;;;;;;;3.39;100.00;100424.13;5094738;28;20020;-57
2024/01/06 03:22:19;;;;;;;0.30;0.30;;;;;;;3.38;100.00;100424.91;5094350;28;20020;-57
2024/01/06 03:24:44;;;;;;;0.40;0.40;;;;;;;3.38;100.00;100430.00;5093916;28;20032;-57
2024/01/06 03:27:09;;;;;;;0.50;0.50;;;;;;;3.34;100.00;100439.16;5094385;28;20028;-57
2024/01/06 03:29:35;;;;;;;0.30;0.30;;;;;;;3.32;100.00;100434.78;5094665;28;20104;-57
2024/01/06 03:32:00;;;;;;;0.40;0.40;;;;;;;3.32;100.00;100439.88;5093746;28;20020;-57
2024/01/06 03:34:25;;;;;;;0.40;0.40;;;;;;;3.31;100.00;100435.59;5093901;28;20044;-57
2024/01/06 03:36:50;;;;;;;0.40;0.40;;;;;;;3.30;100.00;100442.34;5094235;28;20394;-56
2024/01/06 03:39:16;;;;;;;0.40;0.40;;;;;;;3.31;100.00;100443.22;5093164;28;20031;-57
2024/01/06 03:41:41;;;;;;;0.40;0.40;;;;;;;3.28;100.00;100443.94;5094117;28;20425;-57
2024/01/06 03:44:06;;;;;;;0.30;0.30;;;;;;;3.27;100.00;100443.06;5094399;28;20036;-56
2024/01/06 03:46:34;;;;;;;0.40;0.40;;;;;;;3.26;100.00;100451.47;5093226;28;20383;-57
2024/01/06 03:48:59;;;;;;;0.30;0.30;;;;;;;3.24;100.00;100455.63;5094039;28;20372;-57
2024/01/06 03:51:25;;;;;;;0.30;0.30;;;;;;;3.23;100.00;100461.53;5093809;28;20024;-57
2024/01/06 03:53:50;;;;;;;0.40;0.40;;;;;;;3.22;100.00;100462.31;5093192;28;20103;-56
2024/01/06 03:56:15;;;;;;;0.40;0.40;;;;;;;3.20;100.00;100466.47;5093517;28;20452;-57
2024/01/06 03:58:40;;;;;;;0.32;0.32;;;;;;;3.17;100.00;100465.41;5094027;28;20039;-57
2024/01/06 04:01:06;;;;;;;0.40;0.40;;;;;;;3.13;100.00;100456.72;5093290;28;20012;-57
2024/01/06 04:03:31;;;;;;;0.40;0.40;;;;;;;3.11;100.00;100461.75;5093376;28;20028;-57
2024/01/06 04:05:56;;;;;;;0.40;0.40;;;;;;;3.09;100.00;100462.47;5094004;28;20102;-57
2024/01/06 04:08:21;;;;;;;0.30;0.30;;;;;;;3.05;100.00;100465.66;5092558;28;20088;-57
2024/01/06 04:10:47;;;;;;;0.30;0.30;;;;;;;3.04;100.00;100468.97;5093612;28;20031;-57
2024/01/06 04:13:12;;;;;;;0.30;0.30;;;;;;;2.99;100.00;100470.41;5092929;28;20095;-57
2024/01/06 04:15:38;;;;;;;0.30;0.30;;;;;;;2.94;100.00;100483.75;5093042;28;20188;-57
2024/01/06 04:18:04;;;;;;;0.50;0.50;;;;;;;2.93;100.00;100486.19;5093791;28;20028;-56
2024/01/06 04:20:30;;;;;;;0.40;0.40;;;;;;;2.92;100.00;100487.03;5093049;28;20028;-57
2024/01/06 04:22:55;;;;;;;0.40;0.40;;;;;;;2.89;100.00;100487.72;5092770;28;20026;-57
2024/01/06 04:25:21;;;;;;;0.40;0.40;;;;;;;2.89;100.00;100480.09;5093101;28;20059;-57
2024/01/06 04:27:48;;;;;;;0.30;0.30;;;;;;;2.87;100.00;100476.56;5092637;28;20024;-57
2024/01/06 04:30:14;;;;;;;0.30;0.30;;;;;;;2.88;100.00;100493.59;5093260;28;20031;-57
2024/01/06 04:32:40;;;;;;;0.30;0.30;;;;;;;2.89;100.00;100492.81;5093489;28;20368;-57
2024/01/06 04:35:05;;;;;;;0.40;0.40;;;;;;;2.89;100.00;100497.00;5092343;28;20566;-57
2024/01/06 04:37:31;;;;;;;0.40;0.40;;;;;;;2.89;100.00;100500.44;5092970;28;20361;-57
2024/01/06 04:39:57;;;;;;;0.40;0.40;;;;;;;2.90;100.00;100502.19;5093144;28;20054;-57
2024/01/06 04:42:22;;;;;;;0.40;0.40;;;;;;;2.92;100.00;100500.59;5092324;28;20035;-57
2024/01/06 04:44:48;;;;;;;0.30;0.30;;;;;;;2.93;100.00;100501.47;5093202;28;20028;-57
2024/01/06 04:47:14;;;;;;;0.30;0.30;;;;;;;2.93;100.00;100509.09;5092961;28;20460;-57
2024/01/06 04:49:39;;;;;;;0.40;0.40;;;;;;;2.94;100.00;100509.22;5092480;28;20108;-57
2024/01/06 04:52:04;;;;;;;0.38;0.38;;;;;;;2.94;100.00;100514.31;5093109;28;20031;-57
2024/01/06 04:54:30;;;;;;;0.32;0.32;;;;;;;2.92;100.00;100520.97;5092854;28;20084;-57
2024/01/06 04:56:56;;;;;;;0.40;0.40;;;;;;;2.94;100.00;100515.97;5092430;28;20111;-57
2024/01/06 04:59:21;;;;;;;0.32;0.32;;;;;;;2.93;100.00;100515.09;5092976;28;20024;-57
2024/01/06 05:01:46;;;;;;;0.40;0.40;;;;;;;2.94;100.00;100519.41;5093046;28;20460;-57
2024/01/06 05:04:11;;;;;;;0.40;0.40;;;;;;;2.96;100.00;100527.13;5091930;28;20020;-56
2024/01/06 05:06:37;;;;;;;0.40;0.40;;;;;;;2.96;100.00;100527.97;5093011;28;20464;-57
2024/01/06 05:09:02;;;;;;;0.47;0.47;;;;;;;2.95;100.00;100531.31;5092835;28;20020;-57
2024/01/06 05:11:27;;;;;;;0.40;0.40;;;;;;;2.94;100.00;100528.69;5092166;28;20032;-57
2024/01/06 05:13:53;;;;;;;0.40;0.40;;;;;;;2.93;100.00;100540.56;5092756;28;20039;-57
2024/01/06 05:16:18;;;;;;;0.38;0.38;;;;;;;2.91;100.00;100534.47;5092603;28;20032;-57
2024/01/06 05:18:43;;;;;;;0.40;0.40;;;;;;;2.90;100.00;100542.91;5092145;28;20046;-56
2024/01/06 05:21:08;;;;;;;0.40;0.40;;;;;;;2.89;100.00;100543.72;5092911;28;20078;-57
2024/01/06 05:23:34;;;;;;;0.32;0.32;;;;;;;2.87;100.00;100541.88;5092594;28;20387;-57
2024/01/06 05:25:59;;;;;;;0.40;0.40;;;;;;;2.86;100.00;100546.09;5096285;28;20123;-57
2024/01/06 05:28:24;;;;;;;0.40;0.40;;;;;;;2.84;100.00;100555.31;5096387;28;20027;-57
2024/01/06 05:30:50;;;;;;;0.40;0.40;;;;;;;2.84;100.00;100557.88;5096923;28;20025;-57
2024/01/06 05:33:16;;;;;;;0.38;0.38;;;;;;;2.85;100.00;100559.59;5095806;28;20020;-57
2024/01/06 05:35:41;;;;;;;0.40;0.40;;;;;;;2.86;100.00;100565.59;5096413;28;20418;-56
2024/01/06 05:38:07;;;;;;;0.40;0.40;;;;;;;2.87;100.00;100563.13;5095734;28;20092;-57
2024/01/06 05:40:32;;;;;;;0.40;0.40;;;;;;;2.86;100.00;100566.44;5096261;28;20081;-57
2024/01/06 05:42:57;;;;;;;0.40;0.40;;;;;;;2.84;100.00;100570.59;5096727;28;20031;-57
2024/01/06 05:45:22;;;;;;;0.40;0.40;;;;;;;2.85;100.00;100574.88;5095462;28;20109;-57
2024/01/06 05:47:48;;;;;;;0.30;0.30;;;;;;;2.86;100.00;100576.63;5096672;28;20028;-56
2024/01/06 05:50:15;;;;;;;0.40;0.40;;;;;;;2.84;100.00;100580.78;5096204;28;20024;-57
2024/01/06 05:52:41;;;;;;;0.30;0.30;;;;;;;2.86;100.00;100589.34;5095489;28;20529;-57
2024/01/06 05:55:07;;;;;;;0.40;0.40;;;;;;;2.83;100.00;100584.09;5096491;28;20036;-57
2024/01/06 05:57:32;;;;;;;0.30;0.30;;;;;;;2.85;100.00;100584.19;5096116;28;20016;-57
2024/01/06 05:59:57;;;;;;;0.40;0.40;;;;;;;2.86;100.00;100589.34;5095654;28;20510;-57
2024/01/06 06:02:22;;;;;;;0.30;0.30;;;;;;;2.84;100.00;100597.69;5095813;28;20024;-57
2024/01/06 06:04:48;;;;;;;0.32;0.32;;;;;;;2.79;100.00;100595.78;5096234;28;20021;-57
2024/01/06 06:07:13;;;;;;;0.40;0.40;;;;;;;2.82;100.00;100597.59;5095181;28;20039;-57
2024/01/06 06:09:40;;;;;;;0.40;0.40;;;;;;;2.77;100.00;100601.56;5095926;28;20080;-57
2024/01/06 06:12:05;;;;;;;0.38;0.38;;;;;;;2.72;100.00;100601.28;5095988;28;20468;-57
2024/01/06 06:14:31;;;;;;;0.40;0.40;;;;;;;2.67;100.00;100600.16;5094891;28;20024;-57
2024/01/06 06:16:56;;;;;;;0.40;0.40;;;;;;;2.69;100.00;100610.44;5095755;28;20032;-57
2024/01/06 06:19:22;;;;;;;0.40;0.40;;;;;;;2.68;100.00;100611.22;5095634;28;20024;-57
2024/01/06 06:21:47;;;;;;;0.43;0.43;;;;;;;2.65;100.00;100617.00;5094970;28;20019;-57
2024/01/06 06:24:13;;;;;;;0.40;0.40;;;;;;;2.66;100.00;100622.97;5095683;28;20099;-57
2024/01/06 06:26:38;;;;;;;0.40;0.40;;;;;;;2.64;100.00;100630.50;5095898;28;20035;-57
2024/01/06 06:29:04;;;;;;;0.30;0.30;;;;;;;2.64;100.00;100636.47;5094999;28;20028;-57
2024/01/06 06:31:29;;;;;;;0.40;0.40;;;;;;;2.62;100.00;100635.53;5095411;28;20028;-57
2024/01/06 06:33:54;;;;;;;0.40;0.40;;;;;;;2.63;100.00;100646.56;5095389;28;20549;-57
2024/01/06 06:36:19;;;;;;;0.40;0.40;;;;;;;2.62;100.00;100644.81;5093394;28;20115;-57
2024/01/06 06:38:45;;;;;;;0.50;0.50;;;;;;;2.61;100.00;100650.72;5095432;28;20020;-57
2024/01/06 06:41:10;;;;;;;0.40;0.40;;;;;;;2.61;100.00;100645.63;5095434;28;20104;-57
2024/01/06 06:43:35;;;;;;;0.40;0.40;;;;;;;2.60;100.00;100654.91;5094594;28;20468;-57
2024/01/06 06:46:01;;;;;;;0.40;0.40;;;;;;;2.61;100.00;100661.75;5095503;28;20078;-57
2024/01/06 06:48:26;;;;;;;0.40;0.40;;;;;;;2.61;100.00;100664.28;5094405;28;20100;-57
2024/01/06 06:50:52;;;;;;;0.35;0.35;;;;;;;2.61;100.00;100671.06;5095316;28;20024;-57
2024/01/06 06:53:17;;;;;;;0.40;0.40;;;;;;;2.57;100.00;100664.91;5094933;28;20047;-57
2024/01/06 06:55:43;;;;;;;0.40;0.40;;;;;;;2.53;100.00;100677.34;5094493;28;20028;-57
2024/01/06 06:58:08;;;;;;;0.40;0.40;;;;;;;2.49;100.00;100675.41;5095150;28;20421;-57
2024/01/06 07:00:34;;;;;;;0.40;0.40;;;;;;;2.46;100.00;100681.19;5094836;28;20024;-57
2024/01/06 07:02:59;;;;;;;0.30;0.30;;;;;;;2.41;100.00;100685.13;5094405;28;20028;-57
2024/01/06 07:05:25;;;;;;;0.40;0.40;;;;;;;2.39;100.00;100689.22;5094879;28;20027;-57
2024/01/06 07:07:50;;;;;;;0.40;0.40;;;;;;;2.38;100.00;100710.41;5094975;28;20031;-57
2024/01/06 07:10:17;;;;;;;0.40;0.40;;;;;;;2.35;100.00;100708.53;5094118;28;20016;-57
2024/01/06 07:12:43;;;;;;;0.40;0.40;;;;;;;2.34;100.00;100719.50;5094996;28;20043;-57
2024/01/06 07:15:11;;;;;;;0.45;0.45;;;;;;;2.32;100.00;100720.19;5094873;28;20464;-57
2024/01/06 07:17:38;;;;;;;0.50;0.50;;;;;;;2.31;100.00;100726.91;5094032;28;20021;-57
2024/01/06 07:20:04;;;;;;;0.40;0.40;;;;;;;2.30;100.00;100720.97;5094696;28;20047;-57
2024/01/06 07:22:29;;;;;;;0.40;0.40;;;;;;;2.30;100.00;100720.97;5094265;28;20560;-57
2024/01/06 07:24:55;;;;;;;0.40;0.40;;;;;;;2.30;100.00;100725.19;5094122;28;20024;-57
2024/01/06 07:27:20;;;;;;;0.40;0.40;;;;;;;2.30;100.00;100731.13;5094456;28;20028;-57
2024/01/06 07:29:45;;;;;;;0.40;0.40;;;;;;;2.29;100.00;100737.00;5094488;28;20024;-57
2024/01/06 07:32:11;;;;;;;0.35;0.35;;;;;;;2.29;100.00;100734.47;5093398;28;20032;-57
2024/01/06 07:34:36;;;;;;;0.40;0.40;;;;;;;2.25;100.00;100740.16;5094222;28;20067;-57
2024/01/06 07:37:01;;;;;;;0.35;0.35;;;;;;;2.26;100.00;100733.38;5094245;28;20421;-57
2024/01/06 07:39:27;;;;;;;0.40;0.40;;;;;;;2.25;100.00;100742.69;5093457;28;20047;-57
2024/01/06 07:41:52;;;;;;;0.50;0.50;;;;;;;2.22;100.00;100742.53;5094328;28;20024;-57
2024/01/06 07:44:24;;;;;;;0.40;0.40;;;;;;;2.23;100.00;100739.16;5093998;28;20020;-57
2024/01/06 07:46:49;;;;;;;0.43;0.43;;;;;;;2.25;100.00;100747.78;5093189;28;20020;-57
2024/01/06 07:49:15;;;;;;;0.40;0.40;;;;;;;2.23;100.00;100756.97;5093620;28;20073;-57
2024/01/06 07:51:41;;;;;;;0.40;0.40;;;;;;;2.21;100.00;100758.56;5093640;28;20039;-57
2024/01/06 07:54:08;;;;;;;0.40;0.40;;;;;;;2.20;100.00;100766.97;5093959;28;20020;-57
2024/01/06 07:56:34;;;;;;;0.40;0.40;;;;;;;2.21;100.00;100758.56;5093734;28;20039;-57
2024/01/06 07:58:59;;;;;;;0.40;0.40;;;;;;;2.22;100.00;100767.94;5093284;28;20280;-57
2024/01/06 08:01:24;;;;;;;0.40;0.40;;;;;;;2.24;100.00;100771.44;5093651;28;20376;-57
2024/01/06 08:03:50;;;;;;;0.40;0.40;;;;;;;2.25;100.00;100778.28;5093842;28;20020;-57
2024/01/06 08:06:15;;;;;;;0.35;0.35;;;;;;;2.26;100.00;100780.06;5092988;28;20380;-57
2024/01/06 08:08:41;;;;;;;0.40;0.40;;;;;;;2.26;100.00;100785.16;5093697;28;20116;-57
2024/01/06 08:11:06;;;;;;;0.40;0.40;;;;;;;2.27;100.00;100781.81;5093981;28;20103;-57
2024/01/06 08:13:31;;;;;;;0.40;0.40;;;;;;;2.31;100.00;100787.97;5092630;28;20054;-57
2024/01/06 08:15:57;;;;;;;0.40;0.40;;;;;;;2.33;100.00;100800.78;5093574;28;20081;-57
2024/01/06 08:18:22;;;;;;;0.40;0.40;;;;;;;2.34;100.00;100802.53;5093348;28;20028;-57
2024/01/06 08:20:47;;;;;;;0.40;0.40;;;;;;;2.30;100.00;100809.13;5092775;28;20051;-57
2024/01/06 08:23:12;;;;;;;0.40;0.40;;;;;;;2.28;100.00;100809.00;5093455;28;20467;-57
2024/01/06 08:25:38;;;;;;;0.40;0.40;;;;;;;2.25;100.00;100813.91;5093506;28;20458;-57
2024/01/06 08:28:03;;;;;;;0.38;0.38;;;;;;;2.22;100.00;100813.72;5092739;28;20024;-57
2024/01/06 08:30:29;;;;;;;0.30;0.30;;;;;;;2.20;100.00;100817.81;5093214;28;20035;-57
2024/01/06 08:32:54;;;;;;;0.45;0.45;;;;;;;2.20;100.00;100820.34;5093365;28;20034;-57
2024/01/06 08:35:19;;;;;;;0.40;0.40;;;;;;;2.20;100.00;100825.44;5092045;28;20036;-57
2024/01/06 08:37:45;;;;;;;0.40;0.40;;;;;;;2.17;100.00;100829.44;5093420;28;20371;-57
2024/01/06 08:40:11;;;;;;;0.40;0.40;;;;;;;2.17;100.00;100834.53;5093124;28;20024;-57
2024/01/06 08:42:37;;;;;;;0.40;0.40;;;;;;;2.14;100.00;100841.19;5092620;28;20020;-57
2024/01/06 08:45:03;;;;;;;0.38;0.38;;;;;;;2.17;100.00;100835.44;5093323;28;20043;-57
2024/01/06 08:47:28;;;;;;;0.40;0.40;;;;;;;2.15;100.00;100842.06;5092908;28;20063;-57
2024/01/06 08:49:53;;;;;;;0.40;0.40;;;;;;;2.17;100.00;100849.78;5092282;28;20040;-57
2024/01/06 08:52:19;;;;;;;0.40;0.40;;;;;;;2.15;100.00;100857.31;5092771;28;20023;-57
2024/01/06 08:54:44;;;;;;;0.47;0.47;;;;;;;2.17;100.00;100859.97;5093249;28;20050;-57
2024/01/06 08:57:10;;;;;;;0.38;0.38;;;;;;;2.18;100.00;100866.81;5092000;28;20024;-57
2024/01/06 08:59:35;;;;;;;0.50;0.50;;;;;;;2.18;100.00;100869.34;5092401;28;20023;-57
2024/01/06 09:02:01;;;;;;;0.40;0.40;;;;;;;2.18;100.00;100870.22;5092720;28;20111;-57
2024/01/06 09:04:26;;;;;;;0.40;0.40;;;;;;;2.17;100.00;100876.13;5092209;28;20027;-56
2024/01/06 09:06:51;;;;;;;0.40;0.40;;;;;;;2.18;100.00;100877.84;5093166;28;20024;-56
2024/01/06 09:09:17;;;;;;;0.40;0.40;;;;;;;2.18;100.00;100875.31;5091917;28;20028;-57
2024/01/06 09:11:44;;;;;;;0.30;0.30;;;;;;;2.21;100.00;100882.25;5092997;28;20027;-57
2024/01/06 09:14:12;;;;;;;0.35;0.35;;;;;;;2.22;100.00;100890.00;5092896;28;20091;-57
2024/01/06 09:16:37;;;;;;;0.40;0.40;;;;;;;2.23;100.00;100880.69;5092063;28;20027;-57
2024/01/06 09:19:03;;;;;;;0.43;0.43;;;;;;;2.23;100.00;100894.28;5092773;28;20474;-57
2024/01/06 09:21:28;;;;;;;0.50;0.50;;;;;;;2.23;100.00;100886.66;5092665;28;20028;-57
2024/01/06 09:23:53;;;;;;;0.40;0.40;;;;;;;2.24;100.00;100898.59;5091973;28;20379;-56
2024/01/06 09:26:19;;;;;;;0.40;0.40;;;;;;;2.22;100.00;100905.25;5092605;28;20021;-57
2024/01/06 09:28:44;;;;;;;0.40;0.40;;;;;;;2.22;100.00;100905.25;5092780;28;20028;-57
2024/01/06 09:31:09;;;;;;;0.40;0.40;;;;;;;2.19;100.00;100905.03;5091863;28;20098;-56
2024/01/06 09:33:35;;;;;;;0.50;0.50;;;;;;;2.23;100.00;100914.63;5092575;28;20047;-57
2024/01/06 09:36:00;;;;;;;0.50;0.50;;;;;;;2.24;100.00;100912.97;5092875;28;20085;-57
2024/01/06 09:38:26;;;;;;;0.38;0.38;;;;;;;2.24;100.00;100910.44;5091827;28;20024;-56
2024/01/06 09:40:53;;;;;;;0.50;0.50;;;;;;;2.24;100.00;100913.84;5092734;28;20024;-57
2024/01/06 09:43:19;;;;;;;0.30;0.30;;;;;;;2.28;100.00;100925.97;5092212;28;20031;-57
2024/01/06 09:45:54;;;;;;;0.40;0.40;;;;;;;2.28;100.00;100930.19;5091877;28;20028;-57
2024/01/06 09:48:22;;;;;;;0.40;0.40;;;;;;;2.26;100.00;100936.84;5092459;28;20020;-57
2024/01/06 09:50:53;;;;;;;0.40;0.40;;;;;;;2.27;100.00;100942.03;5092470;28;20515;-57
2024/01/06 09:53:19;;;;;;;0.50;0.50;;;;;;;2.29;100.00;100942.13;5091632;28;20028;-57
2024/01/06 09:55:45;;;;;;;0.35;0.35;;;;;;;2.26;100.00;100953.00;5092640;28;20050;-57
2024/01/06 09:58:10;;;;;;;0.40;0.40;;;;;;;2.27;100.00;100956.41;5092250;28;20503;-57
2024/01/06 10:00:35;;;;;;;0.40;0.40;;;;;;;2.28;100.00;100956.50;5091393;28;20029;-57
2024/01/06 10:03:01;;;;;;;0.40;0.40;;;;;;;2.32;100.00;100954.16;5092484;28;20028;-56
2024/01/06 10:05:26;;;;;;;0.35;0.35;;;;;;;2.36;100.00;100959.53;5091398;28;20024;-57
2024/01/06 10:07:52;;;;;;;0.28;0.28;;;;;;;2.34;100.00;100962.75;5092360;28;20362;-57
2024/01/06 10:10:17;;;;;;;0.50;0.50;;;;;;;2.37;100.00;100960.44;5092140;28;20031;-57
2024/01/06 10:12:43;;;;;;;0.40;0.40;;;;;;;2.35;100.00;100967.97;5094825;28;20464;-57
2024/01/06 10:15:11;;;;;;;0.40;0.40;;;;;;;2.35;100.00;100972.16;5095691;28;20483;-57
2024/01/06 10:17:40;;;;;;;0.40;0.40;;;;;;;2.35;100.00;100972.16;5096008;28;20032;-57
2024/01/06 10:20:11;;;;;;;0.45;0.45;;;;;;;2.33;100.00;100973.75;5095096;28;20021;-57
2024/01/06 10:22:37;;;;;;;0.30;0.30;;;;;;;2.36;100.00;100979.00;5095970;28;20025;-57
2024/01/06 10:25:06;;;;;;;0.50;0.50;;;;;;;2.36;100.00;100986.63;5095817;28;20032;-57
2024/01/06 10:27:37;;;;;;;0.47;0.47;;;;;;;2.35;100.00;100982.34;5094666;28;20036;-57
2024/01/06 10:30:02;;;;;;;0.40;0.40;;;;;;;2.34;100.00;100985.66;5095837;28;20031;-57
2024/01/06 10:32:31;;;;;;;0.50;0.50;;;;;;;2.35;100.00;100983.22;5095340;28;20032;-57
2024/01/06 10:34:57;;;;;;;0.45;0.45;;;;;;;2.38;100.00;100987.63;5094603;28;20044;-57
2024/01/06 10:37:24;;;;;;;0.40;0.40;;;;;;;2.45;100.00;100989.78;5095036;28;20031;-57
2024/01/06 10:40:06;;;;;;;0.30;0.30;;;;;;;2.50;100.00;100992.63;5095574;28;20024;-57
2024/01/06 10:42:32;;;;;;;0.40;0.40;;;;;;;2.50;100.00;100993.50;5093995;28;20476;-57
2024/01/06 10:44:57;;;;;;;0.40;0.40;;;;;;;2.49;100.00;100994.28;5095464;28;20105;-57
2024/01/06 10:47:26;;;;;;;0.40;0.40;;;;;;;2.45;100.00;100999.94;5095113;28;20027;-57
2024/01/06 10:49:54;;;;;;;0.30;0.30;;;;;;;2.44;100.00;101000.72;5094742;28;20080;-57
2024/01/06 10:52:20;;;;;;;0.43;0.43;;;;;;;2.41;100.00;100998.00;5094914;28;20395;-57
2024/01/06 10:54:50;;;;;;;0.30;0.30;;;;;;;2.44;100.00;100999.09;5094314;28;20020;-57
2024/01/06 10:57:16;;;;;;;0.40;0.40;;;;;;;2.43;100.00;100999.84;5094716;28;20028;-57
2024/01/06 10:59:42;;;;;;;0.40;0.40;;;;;;;2.44;100.00;101000.72;5095188;28;20103;-57
2024/01/06 11:02:09;;;;;;;0.40;0.40;;;;;;;2.46;100.00;100997.50;5094189;28;20476;-57
2024/01/06 11:04:35;;;;;;;0.35;0.35;;;;;;;2.45;100.00;101002.50;5094819;28;20036;-57
2024/01/06 11:07:01;;;;;;;0.30;0.30;;;;;;;2.45;100.00;101005.94;5094768;28;20035;-57
2024/01/06 11:09:33;;;;;;;0.43;0.43;;;;;;;2.44;100.00;101009.25;5093919;28;20024;-57
2024/01/06 11:12:00;;;;;;;0.40;0.40;;;;;;;2.44;100.00;101010.91;5095086;28;20040;-57
2024/01/06 11:14:33;;;;;;;0.40;0.40;;;;;;;2.46;100.00;101007.69;5094621;28;20027;-57
2024/01/06 11:16:58;;;;;;;0.50;0.50;;;;;;;2.51;100.00;101013.06;5093654;28;20024;-57